Weather at Kawama Airport

Public forecast

Using degrees Celsius for public forecast. Weather courtesy of forecast.io.

Closest aviation weather report (METAR) to Kawama Airport

Closest report is Juan Gualberto Gomez International Airport, 9.1 nm (16.9 km) SW. Retrieved 2020/10/27 18:50 UTC (35 minutes ago):

MUVR 271850Z 10008KT 070V140 9000 FEW020 30/25 Q1014

Closest aviation forecast (TAF) to Kawama Airport

Closest forecast is Juan Gualberto Gomez International Airport, 9.1 nm (16.9 km) SW. Retrieved 2020/10/27 18:03 UTC (1 hour ago):

TAF MUVR 271700Z 2718/2818 11008KT 9000 SCT020 BKN080 TEMPO 2718/2724 VRB10KT 5000 TSRA SCT018CB BKN020 BECMG 2801/2803 VRB03KT BECMG 2815/2817 09010KT